createdAt,value
2024-01-27T00:00:46.545Z,53.78
2024-01-27T00:05:48.662Z,53.76
2024-01-27T00:10:50.745Z,54.09
2024-01-27T00:15:53.005Z,54.37
2024-01-27T00:20:54.984Z,54.16
2024-01-27T00:25:56.981Z,54.08
2024-01-27T00:30:58.928Z,54.11
2024-01-27T00:36:00.898Z,54.14
2024-01-27T00:41:04.973Z,54.24
2024-01-27T00:46:07.033Z,54.23
2024-01-27T00:51:08.974Z,54.27
2024-01-27T00:56:10.959Z,54.41
2024-01-27T01:01:13.058Z,54.48
2024-01-27T01:06:15.388Z,54.76
2024-01-27T01:11:17.624Z,55.16
2024-01-27T01:16:19.594Z,55.05
2024-01-27T01:21:21.733Z,55.41
2024-01-27T01:26:23.941Z,55.36
2024-01-27T01:31:25.858Z,55.64
2024-01-27T01:36:28.558Z,55.63
2024-01-27T01:41:30.519Z,56.16
2024-01-27T01:46:32.485Z,56.30
2024-01-27T01:51:34.756Z,56.47
2024-01-27T01:56:37.924Z,56.88
2024-01-27T02:01:41.144Z,56.83
2024-01-27T02:06:44.311Z,57.08
2024-01-27T02:11:46.386Z,57.40
2024-01-27T02:16:49.216Z,57.78
2024-01-27T02:21:51.372Z,57.78
2024-01-27T02:26:53.326Z,58.55
2024-01-27T02:31:56.296Z,58.77
2024-01-27T02:36:58.216Z,59.00
2024-01-27T02:42:00.172Z,59.24
2024-01-27T02:47:02.422Z,59.36
2024-01-27T02:52:04.625Z,59.61
2024-01-27T02:57:06.729Z,59.62
2024-01-27T03:02:09.455Z,59.97
2024-01-27T03:07:11.418Z,59.92
2024-01-27T03:12:13.880Z,60.03
2024-01-27T03:17:16.914Z,60.10
2024-01-27T03:22:19.991Z,60.33
2024-01-27T03:27:22.187Z,60.31
2024-01-27T03:32:24.124Z,60.14
2024-01-27T03:37:26.073Z,60.04
2024-01-27T03:42:28.176Z,60.11
2024-01-27T03:47:30.650Z,60.13
2024-01-27T03:52:32.591Z,60.46
2024-01-27T03:57:34.695Z,60.80
2024-01-27T04:02:36.672Z,60.76
2024-01-27T04:07:38.626Z,60.89
2024-01-27T04:12:40.611Z,60.87
2024-01-27T04:17:43.132Z,61.18
2024-01-27T04:22:45.231Z,61.02
2024-01-27T04:27:47.194Z,61.37
2024-01-27T04:32:51.242Z,61.65
2024-01-27T04:37:53.408Z,61.51
2024-01-27T04:42:55.936Z,61.94
2024-01-27T04:47:57.970Z,62.18
2024-01-27T04:52:59.998Z,62.29
2024-01-27T04:58:01.973Z,62.46
2024-01-27T05:03:06.367Z,61.98
2024-01-27T05:08:08.502Z,62.19
2024-01-27T05:13:10.472Z,62.45
2024-01-27T05:18:12.679Z,63.06
2024-01-27T05:23:14.781Z,62.85
2024-01-27T05:28:16.781Z,62.81
2024-01-27T05:33:18.913Z,62.63
2024-01-27T05:38:20.991Z,62.19
2024-01-27T05:43:23.886Z,62.16
2024-01-27T05:48:26.001Z,62.38
2024-01-27T05:53:28.661Z,62.52
2024-01-27T05:58:30.598Z,62.58
2024-01-27T06:03:33.792Z,62.42
2024-01-27T06:08:36.267Z,62.47
2024-01-27T06:13:41.999Z,62.59
2024-01-27T06:18:44.114Z,62.21
2024-01-27T06:23:46.528Z,62.30
2024-01-27T06:28:48.441Z,62.71
2024-01-27T06:33:50.798Z,62.41
2024-01-27T06:38:53.076Z,62.62
2024-01-27T06:43:55.208Z,62.89
2024-01-27T06:48:57.340Z,63.02
2024-01-27T06:53:59.792Z,62.89
2024-01-27T06:59:01.901Z,63.25
2024-01-27T07:04:04.384Z,63.43
2024-01-27T07:09:07.891Z,63.51
2024-01-27T07:14:10.205Z,63.46
2024-01-27T07:19:12.794Z,63.42
2024-01-27T07:24:14.845Z,63.34
2024-01-27T07:29:16.798Z,63.42
2024-01-27T07:34:19.271Z,63.20
2024-01-27T07:39:21.489Z,63.47
2024-01-27T07:44:23.561Z,63.36
2024-01-27T07:49:25.679Z,63.59
2024-01-27T07:54:27.776Z,62.59
2024-01-27T07:59:29.744Z,62.37
2024-01-27T08:04:31.906Z,62.15
2024-01-27T08:09:34.164Z,61.53
2024-01-27T08:14:36.980Z,61.59
2024-01-27T08:19:39.211Z,61.58
2024-01-27T08:24:41.317Z,61.43
2024-01-27T08:29:43.383Z,61.37
2024-01-27T08:34:45.586Z,61.56
2024-01-27T08:39:47.876Z,61.24
2024-01-27T08:44:49.905Z,61.25
2024-01-27T08:49:51.950Z,61.00
2024-01-27T08:54:54.007Z,60.67
2024-01-27T08:59:56.037Z,60.52
2024-01-27T09:04:58.046Z,60.28
2024-01-27T09:10:00.008Z,60.31
2024-01-27T09:15:02.141Z,59.99
2024-01-27T09:20:04.381Z,60.08
2024-01-27T09:25:06.925Z,60.16
2024-01-27T09:30:09.618Z,59.70
2024-01-27T09:35:11.571Z,59.63
2024-01-27T09:40:13.949Z,59.54
2024-01-27T09:45:16.179Z,59.08
2024-01-27T09:50:19.461Z,59.15
2024-01-27T09:55:21.492Z,59.75
2024-01-27T10:00:24.392Z,59.02
2024-01-27T10:05:27.342Z,59.48
2024-01-27T10:10:29.403Z,59.09
2024-01-27T10:15:31.444Z,59.11
2024-01-27T10:20:33.509Z,59.01
2024-01-27T10:25:38.873Z,58.52
2024-01-27T10:30:40.991Z,58.47
2024-01-27T10:35:44.121Z,58.33
2024-01-27T10:40:46.374Z,58.01
2024-01-27T10:45:48.426Z,57.39
2024-01-27T10:50:51.563Z,57.64
2024-01-27T10:55:59.454Z,57.14
2024-01-27T11:01:03.459Z,57.11
2024-01-27T11:06:07.189Z,56.99
2024-01-27T11:11:09.374Z,56.78
2024-01-27T11:16:19.078Z,56.79
2024-01-27T11:21:21.414Z,56.63
2024-01-27T11:26:24.423Z,56.43
2024-01-27T11:31:29.503Z,56.27
2024-01-27T11:36:34.395Z,56.15
2024-01-27T11:41:37.017Z,55.71
2024-01-27T11:46:39.402Z,55.76
2024-01-27T11:51:41.473Z,55.16
2024-01-27T11:56:43.590Z,55.13
2024-01-27T12:01:45.688Z,54.22
2024-01-27T12:06:48.387Z,53.96
2024-01-27T12:11:50.444Z,53.54
2024-01-27T12:16:54.686Z,53.37
2024-01-27T12:21:58.488Z,53.45
2024-01-27T12:27:01.052Z,53.41
2024-01-27T12:32:06.322Z,53.21
2024-01-27T12:37:17.337Z,52.19
2024-01-27T12:42:22.631Z,53.02
2024-01-27T12:47:24.753Z,52.29
2024-01-27T12:52:26.995Z,52.19
2024-01-27T12:57:29.136Z,51.78
2024-01-27T13:02:33.508Z,51.39
2024-01-27T13:07:36.215Z,50.60
2024-01-27T13:12:38.339Z,51.10
2024-01-27T13:17:40.509Z,50.28
2024-01-27T13:22:42.533Z,50.19
2024-01-27T13:27:44.547Z,50.13
2024-01-27T13:32:46.625Z,49.70
2024-01-27T13:37:49.423Z,49.67
2024-01-27T13:42:51.471Z,49.83
2024-01-27T13:47:53.662Z,49.61
2024-01-27T13:52:55.619Z,49.19
2024-01-27T13:57:57.654Z,48.97
2024-01-27T14:02:59.671Z,48.73
2024-01-27T14:08:02.225Z,48.65
2024-01-27T14:13:06.152Z,48.30
2024-01-27T14:18:08.393Z,47.94
2024-01-27T14:23:10.466Z,48.44
2024-01-27T14:28:13.205Z,48.61
2024-01-27T14:33:17.459Z,48.60
2024-01-27T14:38:19.622Z,48.50
2024-01-27T14:43:22.970Z,48.47
2024-01-27T14:48:25.107Z,48.31
2024-01-27T14:53:27.355Z,48.19
2024-01-27T14:58:29.380Z,48.07
2024-01-27T15:03:31.545Z,47.96
2024-01-27T15:08:33.648Z,48.66
2024-01-27T15:13:35.878Z,48.50
2024-01-27T15:18:41.801Z,48.57
2024-01-27T15:23:43.895Z,48.51
2024-01-27T15:28:45.851Z,49.24
2024-01-27T15:33:47.849Z,49.44
2024-01-27T15:38:50.139Z,49.65
2024-01-27T15:43:52.197Z,49.84
2024-01-27T15:48:54.247Z,50.25
2024-01-27T15:53:56.401Z,50.38
2024-01-27T15:58:59.047Z,50.76
2024-01-27T16:04:05.284Z,51.25
2024-01-27T16:09:07.542Z,51.40
2024-01-27T16:14:12.930Z,51.91
2024-01-27T16:19:15.396Z,52.27
2024-01-27T16:24:17.442Z,52.67
2024-01-27T16:29:19.443Z,52.62
2024-01-27T16:34:22.498Z,53.01
2024-01-27T16:39:24.836Z,53.35
2024-01-27T16:44:27.212Z,53.40
2024-01-27T16:49:29.475Z,53.71
2024-01-27T16:54:31.510Z,53.92
2024-01-27T16:59:34.041Z,54.12
2024-01-27T17:04:36.394Z,54.59
2024-01-27T17:09:39.057Z,55.06
2024-01-27T17:14:44.433Z,55.35
2024-01-27T17:19:47.182Z,55.54
2024-01-27T17:24:49.195Z,55.73
2024-01-27T17:29:51.137Z,56.07
2024-01-27T17:34:53.284Z,56.58
2024-01-27T17:39:55.263Z,56.67
2024-01-27T17:44:57.252Z,57.08
2024-01-27T17:49:59.352Z,57.33
2024-01-27T17:55:01.443Z,57.74
2024-01-27T18:00:04.328Z,57.81
2024-01-27T18:05:09.022Z,57.97
2024-01-27T18:10:11.091Z,58.47
2024-01-27T18:15:13.620Z,58.28
2024-01-27T18:20:15.999Z,58.95
2024-01-27T18:25:18.045Z,59.07
2024-01-27T18:30:20.108Z,59.12
2024-01-27T18:35:22.628Z,59.11
2024-01-27T18:40:24.648Z,59.67
2024-01-27T18:45:26.842Z,59.77
2024-01-27T18:50:28.989Z,59.92
2024-01-27T18:55:38.620Z,60.10
2024-01-27T19:00:40.900Z,60.51
2024-01-27T19:05:42.883Z,60.54
2024-01-27T19:10:46.677Z,60.62
2024-01-27T19:15:53.853Z,60.39
2024-01-27T19:20:55.836Z,60.52
2024-01-27T19:25:57.791Z,61.00
2024-01-27T19:31:00.030Z,61.10
2024-01-27T19:36:05.286Z,61.22
2024-01-27T19:41:15.560Z,61.45
2024-01-27T19:46:20.919Z,61.54
2024-01-27T19:51:22.920Z,61.39
2024-01-27T19:56:25.048Z,61.66
2024-01-27T20:01:30.066Z,61.73
2024-01-27T20:06:32.166Z,61.65
2024-01-27T20:11:34.207Z,62.00
2024-01-27T20:16:36.737Z,61.95
2024-01-27T20:21:38.932Z,62.04
2024-01-27T20:26:43.445Z,62.09
2024-01-27T20:31:45.449Z,62.43
2024-01-27T20:36:47.745Z,62.27
2024-01-27T20:41:49.750Z,62.44
2024-01-27T20:46:51.741Z,62.55
2024-01-27T20:51:53.740Z,62.36
2024-01-27T20:56:55.795Z,62.32
2024-01-27T21:02:03.175Z,62.52
2024-01-27T21:07:05.665Z,62.88
2024-01-27T21:12:08.257Z,62.59
2024-01-27T21:17:10.302Z,62.73
2024-01-27T21:22:12.289Z,62.83
2024-01-27T21:27:14.610Z,62.80
2024-01-27T21:32:17.282Z,62.65
2024-01-27T21:37:19.230Z,62.57
2024-01-27T21:42:24.993Z,63.21
2024-01-27T21:47:27.047Z,62.97
2024-01-27T21:52:29.526Z,63.04
2024-01-27T21:57:32.555Z,63.09
2024-01-27T22:02:39.831Z,63.10
2024-01-27T22:07:43.441Z,63.13
2024-01-27T22:17:48.209Z,63.21
2024-01-27T22:22:50.157Z,63.29
2024-01-27T22:27:52.127Z,63.17
2024-01-27T22:32:54.219Z,63.23
2024-01-27T22:37:56.237Z,63.43
2024-01-27T22:42:58.174Z,63.36
2024-01-27T22:48:02.916Z,63.28
2024-01-27T22:53:05.162Z,63.32
2024-01-27T22:58:07.143Z,63.45
2024-01-27T23:03:10.610Z,63.64
2024-01-27T23:08:13.460Z,63.63
2024-01-27T23:13:18.573Z,63.80
2024-01-27T23:18:20.845Z,63.66
2024-01-27T23:23:22.847Z,63.99
2024-01-27T23:28:24.870Z,64.18
2024-01-27T23:33:27.145Z,64.00
2024-01-27T23:38:29.206Z,63.82
2024-01-27T23:43:31.331Z,63.96
2024-01-27T23:48:33.444Z,63.56
2024-01-27T23:53:35.511Z,64.02
2024-01-27T23:58:37.924Z,63.84
